sensor_id;sensor_type;location;lat;lon;timestamp;P1;durP1;ratioP1;P2;durP2;ratioP2
8074;SDS011;4080;42.676;23.372;2023-04-06T13:01:33;13.97;;;11.30;;
8074;SDS011;4080;42.676;23.372;2023-04-06T13:03:59;9.77;;;8.53;;
8074;SDS011;4080;42.676;23.372;2023-04-06T13:06:26;11.07;;;8.80;;
8074;SDS011;4080;42.676;23.372;2023-04-06T13:08:53;9.90;;;8.90;;
8074;SDS011;4080;42.676;23.372;2023-04-06T13:11:20;12.10;;;9.30;;
8074;SDS011;4080;42.676;23.372;2023-04-06T13:13:49;10.53;;;8.47;;
8074;SDS011;4080;42.676;23.372;2023-04-06T13:16:15;9.20;;;8.30;;
8074;SDS011;4080;42.676;23.372;2023-04-06T13:18:44;10.13;;;8.80;;
8074;SDS011;4080;42.676;23.372;2023-04-06T13:21:13;11.47;;;8.60;;
8074;SDS011;4080;42.676;23.372;2023-04-06T13:23:41;9.10;;;8.20;;
8074;SDS011;4080;42.676;23.372;2023-04-06T13:26:07;9.70;;;8.13;;
8074;SDS011;4080;42.676;23.372;2023-04-06T13:28:35;10.50;;;8.47;;
8074;SDS011;4080;42.676;23.372;2023-04-06T13:31:04;13.73;;;9.30;;
8074;SDS011;4080;42.676;23.372;2023-04-06T13:33:31;9.53;;;8.53;;
8074;SDS011;4080;42.676;23.372;2023-04-06T13:36:00;9.47;;;8.20;;
8074;SDS011;4080;42.676;23.372;2023-04-06T13:38:27;9.90;;;8.37;;
8074;SDS011;4080;42.676;23.372;2023-04-06T13:40:54;9.70;;;8.80;;
8074;SDS011;4080;42.676;23.372;2023-04-06T13:43:21;9.70;;;8.70;;
8074;SDS011;4080;42.676;23.372;2023-04-06T13:45:49;16.00;;;8.60;;
8074;SDS011;4080;42.676;23.372;2023-04-06T13:48:16;9.57;;;8.57;;
8074;SDS011;4080;42.676;23.372;2023-04-06T13:50:43;11.27;;;8.37;;
8074;SDS011;4080;42.676;23.372;2023-04-06T13:53:12;10.53;;;9.17;;
8074;SDS011;4080;42.676;23.372;2023-04-06T13:55:39;10.20;;;8.87;;
8074;SDS011;4080;42.676;23.372;2023-04-06T13:58:05;11.00;;;8.97;;
8074;SDS011;4080;42.676;23.372;2023-04-06T14:00:32;13.70;;;8.27;;
8074;SDS011;4080;42.676;23.372;2023-04-06T14:02:59;10.17;;;8.10;;
8074;SDS011;4080;42.676;23.372;2023-04-06T14:05:26;8.47;;;7.57;;
8074;SDS011;4080;42.676;23.372;2023-04-06T14:07:54;13.93;;;8.50;;
8074;SDS011;4080;42.676;23.372;2023-04-06T14:10:22;8.60;;;7.70;;
8074;SDS011;4080;42.676;23.372;2023-04-06T14:12:51;9.57;;;7.90;;
8074;SDS011;4080;42.676;23.372;2023-04-06T14:15:18;8.47;;;7.57;;
8074;SDS011;4080;42.676;23.372;2023-04-06T14:17:47;8.30;;;7.50;;
8074;SDS011;4080;42.676;23.372;2023-04-06T14:20:15;10.50;;;7.70;;
8074;SDS011;4080;42.676;23.372;2023-04-06T14:22:42;10.87;;;7.90;;
8074;SDS011;4080;42.676;23.372;2023-04-06T14:25:09;11.90;;;8.30;;
8074;SDS011;4080;42.676;23.372;2023-04-06T14:27:37;12.00;;;7.67;;
8074;SDS011;4080;42.676;23.372;2023-04-06T14:30:06;8.90;;;8.00;;
8074;SDS011;4080;42.676;23.372;2023-04-06T14:32:33;11.63;;;7.73;;
8074;SDS011;4080;42.676;23.372;2023-04-06T14:35:01;11.23;;;8.10;;
8074;SDS011;4080;42.676;23.372;2023-04-06T14:37:28;12.30;;;8.57;;
8074;SDS011;4080;42.676;23.372;2023-04-06T14:39:55;12.83;;;9.07;;
8074;SDS011;4080;42.676;23.372;2023-04-06T14:42:21;11.87;;;9.23;;
8074;SDS011;4080;42.676;23.372;2023-04-06T14:44:49;9.83;;;8.83;;
8074;SDS011;4080;42.676;23.372;2023-04-06T14:47:17;10.60;;;9.13;;
8074;SDS011;4080;42.676;23.372;2023-04-06T14:49:45;13.83;;;9.27;;
8074;SDS011;4080;42.676;23.372;2023-04-06T14:52:12;13.13;;;8.97;;
8074;SDS011;4080;42.676;23.372;2023-04-06T14:54:39;12.47;;;9.40;;
8074;SDS011;4080;42.676;23.372;2023-04-06T14:57:06;10.90;;;9.80;;
8074;SDS011;4080;42.676;23.372;2023-04-06T14:59:33;12.37;;;10.10;;
8074;SDS011;4080;42.676;23.372;2023-04-06T15:02:01;12.50;;;10.30;;
8074;SDS011;4080;42.676;23.372;2023-04-06T15:04:29;11.50;;;9.47;;
8074;SDS011;4080;42.676;23.372;2023-04-06T15:06:55;11.37;;;10.13;;
8074;SDS011;4080;42.676;23.372;2023-04-06T15:09:22;13.70;;;9.83;;
8074;SDS011;4080;42.676;23.372;2023-04-06T15:11:49;11.17;;;9.70;;
8074;SDS011;4080;42.676;23.372;2023-04-06T15:14:15;12.13;;;9.80;;
8074;SDS011;4080;42.676;23.372;2023-04-06T15:16:42;13.03;;;10.20;;
8074;SDS011;4080;42.676;23.372;2023-04-06T15:19:10;13.03;;;9.93;;
8074;SDS011;4080;42.676;23.372;2023-04-06T15:21:37;12.63;;;10.60;;
8074;SDS011;4080;42.676;23.372;2023-04-06T15:24:04;13.30;;;11.00;;
8074;SDS011;4080;42.676;23.372;2023-04-06T15:26:34;12.73;;;11.33;;
8074;SDS011;4080;42.676;23.372;2023-04-06T15:29:01;13.70;;;11.40;;
8074;SDS011;4080;42.676;23.372;2023-04-06T15:31:28;14.37;;;11.40;;
8074;SDS011;4080;42.676;23.372;2023-04-06T15:33:55;14.20;;;10.43;;
8074;SDS011;4080;42.676;23.372;2023-04-06T15:36:25;15.07;;;11.90;;
8074;SDS011;4080;42.676;23.372;2023-04-06T15:38:53;12.23;;;10.97;;
8074;SDS011;4080;42.676;23.372;2023-04-06T15:41:20;14.40;;;11.00;;
8074;SDS011;4080;42.676;23.372;2023-04-06T15:43:47;16.67;;;12.03;;
8074;SDS011;4080;42.676;23.372;2023-04-06T15:46:14;17.30;;;12.10;;
8074;SDS011;4080;42.676;23.372;2023-04-06T15:48:41;22.20;;;13.63;;
8074;SDS011;4080;42.676;23.372;2023-04-06T15:51:08;17.30;;;13.33;;
8074;SDS011;4080;42.676;23.372;2023-04-06T15:53:36;17.30;;;13.60;;
8074;SDS011;4080;42.676;23.372;2023-04-06T15:56:04;18.40;;;14.90;;
8074;SDS011;4080;42.676;23.372;2023-04-06T15:58:32;19.77;;;15.93;;
8074;SDS011;4080;42.676;23.372;2023-04-06T16:00:59;14.93;;;11.80;;
8074;SDS011;4080;42.676;23.372;2023-04-06T16:03:26;14.90;;;12.33;;
8074;SDS011;4080;42.676;23.372;2023-04-06T16:05:53;15.83;;;11.57;;
8074;SDS011;4080;42.676;23.372;2023-04-06T16:08:19;13.67;;;11.13;;
8074;SDS011;4080;42.676;23.372;2023-04-06T16:10:48;13.93;;;11.60;;
8074;SDS011;4080;42.676;23.372;2023-04-06T16:13:15;15.73;;;12.13;;
8074;SDS011;4080;42.676;23.372;2023-04-06T16:15:41;14.87;;;12.50;;
8074;SDS011;4080;42.676;23.372;2023-04-06T16:18:08;14.27;;;12.37;;
8074;SDS011;4080;42.676;23.372;2023-04-06T16:20:35;17.37;;;12.80;;
8074;SDS011;4080;42.676;23.372;2023-04-06T16:23:03;17.87;;;12.53;;
8074;SDS011;4080;42.676;23.372;2023-04-06T16:25:30;19.50;;;12.40;;
8074;SDS011;4080;42.676;23.372;2023-04-06T16:27:58;13.70;;;11.63;;
8074;SDS011;4080;42.676;23.372;2023-04-06T16:30:25;15.57;;;12.80;;
8074;SDS011;4080;42.676;23.372;2023-04-06T16:32:54;12.77;;;11.47;;
8074;SDS011;4080;42.676;23.372;2023-04-06T16:35:21;13.03;;;11.67;;
8074;SDS011;4080;42.676;23.372;2023-04-06T16:37:50;14.70;;;11.67;;
8074;SDS011;4080;42.676;23.372;2023-04-06T16:40:17;14.20;;;12.17;;
8074;SDS011;4080;42.676;23.372;2023-04-06T16:42:44;14.40;;;11.70;;
8074;SDS011;4080;42.676;23.372;2023-04-06T16:45:12;13.87;;;12.40;;
8074;SDS011;4080;42.676;23.372;2023-04-06T16:47:40;13.17;;;11.80;;
8074;SDS011;4080;42.676;23.372;2023-04-06T16:50:07;16.10;;;12.60;;
8074;SDS011;4080;42.676;23.372;2023-04-06T16:52:34;15.47;;;12.97;;
8074;SDS011;4080;42.676;23.372;2023-04-06T16:55:01;14.63;;;11.77;;
8074;SDS011;4080;42.676;23.372;2023-04-06T16:57:28;13.47;;;11.17;;
8074;SDS011;4080;42.676;23.372;2023-04-06T16:59:55;17.47;;;12.53;;
8074;SDS011;4080;42.676;23.372;2023-04-06T17:02:23;14.80;;;12.00;;
8074;SDS011;4080;42.676;23.372;2023-04-06T17:04:50;13.17;;;10.13;;
8074;SDS011;4080;42.676;23.372;2023-04-06T17:07:17;13.00;;;10.37;;
8074;SDS011;4080;42.676;23.372;2023-04-06T17:09:45;13.37;;;10.67;;
8074;SDS011;4080;42.676;23.372;2023-04-06T17:12:13;15.00;;;12.17;;
8074;SDS011;4080;42.676;23.372;2023-04-06T17:14:39;13.30;;;11.13;;
8074;SDS011;4080;42.676;23.372;2023-04-06T17:17:06;15.20;;;11.77;;
8074;SDS011;4080;42.676;23.372;2023-04-06T17:19:34;15.33;;;11.77;;
8074;SDS011;4080;42.676;23.372;2023-04-06T17:22:01;13.73;;;10.60;;
8074;SDS011;4080;42.676;23.372;2023-04-06T17:24:27;15.00;;;10.70;;
8074;SDS011;4080;42.676;23.372;2023-04-06T17:26:54;15.60;;;11.13;;
8074;SDS011;4080;42.676;23.372;2023-04-06T17:29:21;12.73;;;11.40;;
8074;SDS011;4080;42.676;23.372;2023-04-06T17:31:48;14.93;;;11.37;;
8074;SDS011;4080;42.676;23.372;2023-04-06T17:34:14;15.77;;;11.87;;
8074;SDS011;4080;42.676;23.372;2023-04-06T17:36:42;14.87;;;11.73;;
8074;SDS011;4080;42.676;23.372;2023-04-06T17:39:09;20.90;;;17.67;;
8074;SDS011;4080;42.676;23.372;2023-04-06T17:41:37;16.50;;;13.27;;
8074;SDS011;4080;42.676;23.372;2023-04-06T17:44:04;14.67;;;11.87;;
8074;SDS011;4080;42.676;23.372;2023-04-06T17:46:30;14.83;;;11.13;;
8074;SDS011;4080;42.676;23.372;2023-04-06T17:48:57;15.20;;;11.87;;
8074;SDS011;4080;42.676;23.372;2023-04-06T17:51:24;12.70;;;11.30;;
8074;SDS011;4080;42.676;23.372;2023-04-06T17:53:52;16.40;;;14.43;;
8074;SDS011;4080;42.676;23.372;2023-04-06T17:56:19;14.20;;;11.40;;
8074;SDS011;4080;42.676;23.372;2023-04-06T17:58:47;13.83;;;11.00;;
8074;SDS011;4080;42.676;23.372;2023-04-06T18:01:14;15.80;;;12.33;;
8074;SDS011;4080;42.676;23.372;2023-04-06T18:03:43;16.07;;;11.33;;
8074;SDS011;4080;42.676;23.372;2023-04-06T18:06:10;14.43;;;11.57;;
8074;SDS011;4080;42.676;23.372;2023-04-06T18:08:38;16.23;;;11.07;;
8074;SDS011;4080;42.676;23.372;2023-04-06T18:11:06;11.83;;;10.20;;
8074;SDS011;4080;42.676;23.372;2023-04-06T18:13:35;13.97;;;11.40;;
8074;SDS011;4080;42.676;23.372;2023-04-06T18:16:02;16.60;;;11.80;;
8074;SDS011;4080;42.676;23.372;2023-04-06T18:18:29;14.83;;;11.60;;
8074;SDS011;4080;42.676;23.372;2023-04-06T18:20:56;13.47;;;10.87;;
8074;SDS011;4080;42.676;23.372;2023-04-06T18:23:23;14.57;;;11.73;;
8074;SDS011;4080;42.676;23.372;2023-04-06T18:25:49;14.07;;;10.87;;
8074;SDS011;4080;42.676;23.372;2023-04-06T18:28:17;17.43;;;11.20;;
8074;SDS011;4080;42.676;23.372;2023-04-06T18:30:44;16.03;;;11.37;;
8074;SDS011;4080;42.676;23.372;2023-04-06T18:33:11;16.77;;;11.63;;
8074;SDS011;4080;42.676;23.372;2023-04-06T18:35:38;13.53;;;10.97;;
8074;SDS011;4080;42.676;23.372;2023-04-06T18:38:06;15.70;;;10.57;;
8074;SDS011;4080;42.676;23.372;2023-04-06T18:40:33;11.37;;;9.93;;
8074;SDS011;4080;42.676;23.372;2023-04-06T18:43:01;15.33;;;11.30;;
8074;SDS011;4080;42.676;23.372;2023-04-06T18:45:30;17.10;;;10.67;;
8074;SDS011;4080;42.676;23.372;2023-04-06T18:47:57;14.20;;;10.73;;
8074;SDS011;4080;42.676;23.372;2023-04-06T18:50:24;11.87;;;10.63;;
8074;SDS011;4080;42.676;23.372;2023-04-06T18:52:51;15.97;;;11.43;;
8074;SDS011;4080;42.676;23.372;2023-04-06T18:55:18;14.07;;;11.20;;
8074;SDS011;4080;42.676;23.372;2023-04-06T18:57:45;14.17;;;11.67;;
8074;SDS011;4080;42.676;23.372;2023-04-06T19:00:13;13.37;;;10.87;;
8074;SDS011;4080;42.676;23.372;2023-04-06T19:02:43;14.30;;;10.67;;
8074;SDS011;4080;42.676;23.372;2023-04-06T19:05:10;14.13;;;11.10;;
8074;SDS011;4080;42.676;23.372;2023-04-06T19:07:37;15.23;;;11.50;;
8074;SDS011;4080;42.676;23.372;2023-04-06T19:10:06;14.93;;;12.17;;
8074;SDS011;4080;42.676;23.372;2023-04-06T19:12:34;12.47;;;10.83;;
8074;SDS011;4080;42.676;23.372;2023-04-06T19:15:02;17.67;;;11.40;;
8074;SDS011;4080;42.676;23.372;2023-04-06T19:17:29;13.47;;;11.10;;
8074;SDS011;4080;42.676;23.372;2023-04-06T19:19:57;12.43;;;9.73;;
8074;SDS011;4080;42.676;23.372;2023-04-06T19:22:25;14.57;;;10.37;;
8074;SDS011;4080;42.676;23.372;2023-04-06T19:24:51;16.37;;;12.63;;
8074;SDS011;4080;42.676;23.372;2023-04-06T19:27:18;18.57;;;14.57;;
8074;SDS011;4080;42.676;23.372;2023-04-06T19:29:45;14.10;;;10.97;;
8074;SDS011;4080;42.676;23.372;2023-04-06T19:32:12;14.13;;;10.67;;
8074;SDS011;4080;42.676;23.372;2023-04-06T19:34:38;13.80;;;9.90;;
8074;SDS011;4080;42.676;23.372;2023-04-06T19:37:07;12.80;;;9.90;;
8074;SDS011;4080;42.676;23.372;2023-04-06T19:39:34;14.23;;;10.53;;
8074;SDS011;4080;42.676;23.372;2023-04-06T19:42:02;14.23;;;10.60;;
8074;SDS011;4080;42.676;23.372;2023-04-06T19:44:29;13.57;;;10.70;;
8074;SDS011;4080;42.676;23.372;2023-04-06T19:46:56;13.83;;;10.67;;
8074;SDS011;4080;42.676;23.372;2023-04-06T19:49:24;12.37;;;10.27;;
8074;SDS011;4080;42.676;23.372;2023-04-06T19:51:52;12.73;;;10.57;;
8074;SDS011;4080;42.676;23.372;2023-04-06T19:54:20;13.73;;;11.10;;
8074;SDS011;4080;42.676;23.372;2023-04-06T19:56:47;12.13;;;10.23;;
8074;SDS011;4080;42.676;23.372;2023-04-06T19:59:14;21.20;;;14.87;;
8074;SDS011;4080;42.676;23.372;2023-04-06T20:01:42;13.70;;;10.27;;
8074;SDS011;4080;42.676;23.372;2023-04-06T20:04:10;18.43;;;12.70;;
8074;SDS011;4080;42.676;23.372;2023-04-06T20:06:37;15.00;;;11.97;;
8074;SDS011;4080;42.676;23.372;2023-04-06T20:09:04;17.43;;;12.10;;
8074;SDS011;4080;42.676;23.372;2023-04-06T20:11:33;12.73;;;10.20;;
8074;SDS011;4080;42.676;23.372;2023-04-06T20:14:00;13.07;;;9.60;;
8074;SDS011;4080;42.676;23.372;2023-04-06T20:16:26;12.63;;;9.47;;
8074;SDS011;4080;42.676;23.372;2023-04-06T20:18:53;12.23;;;9.40;;
8074;SDS011;4080;42.676;23.372;2023-04-06T20:21:20;13.13;;;10.17;;
8074;SDS011;4080;42.676;23.372;2023-04-06T20:23:47;10.03;;;8.87;;
8074;SDS011;4080;42.676;23.372;2023-04-06T20:26:13;11.33;;;9.40;;
8074;SDS011;4080;42.676;23.372;2023-04-06T20:28:41;11.93;;;9.50;;
8074;SDS011;4080;42.676;23.372;2023-04-06T20:31:08;11.20;;;8.80;;
8074;SDS011;4080;42.676;23.372;2023-04-06T20:33:36;11.13;;;8.40;;
8074;SDS011;4080;42.676;23.372;2023-04-06T20:36:04;9.43;;;8.03;;
8074;SDS011;4080;42.676;23.372;2023-04-06T20:38:31;10.43;;;8.30;;
8074;SDS011;4080;42.676;23.372;2023-04-06T20:40:57;9.20;;;7.73;;
8074;SDS011;4080;42.676;23.372;2023-04-06T20:43:24;10.33;;;8.10;;
8074;SDS011;4080;42.676;23.372;2023-04-06T20:45:54;9.20;;;8.10;;
8074;SDS011;4080;42.676;23.372;2023-04-06T20:48:22;16.27;;;9.07;;
8074;SDS011;4080;42.676;23.372;2023-04-06T20:50:48;10.33;;;8.63;;
8074;SDS011;4080;42.676;23.372;2023-04-06T20:53:15;10.47;;;8.60;;
8074;SDS011;4080;42.676;23.372;2023-04-06T20:55:42;10.90;;;8.63;;
8074;SDS011;4080;42.676;23.372;2023-04-06T20:58:09;11.10;;;8.40;;
8074;SDS011;4080;42.676;23.372;2023-04-06T21:00:36;11.77;;;8.30;;
8074;SDS011;4080;42.676;23.372;2023-04-06T21:03:04;10.90;;;8.60;;
8074;SDS011;4080;42.676;23.372;2023-04-06T21:05:31;12.30;;;8.67;;
8074;SDS011;4080;42.676;23.372;2023-04-06T21:07:58;12.63;;;9.57;;
8074;SDS011;4080;42.676;23.372;2023-04-06T21:10:26;14.50;;;9.73;;
8074;SDS011;4080;42.676;23.372;2023-04-06T21:12:52;10.70;;;8.73;;
8074;SDS011;4080;42.676;23.372;2023-04-06T21:15:19;13.10;;;8.70;;
8074;SDS011;4080;42.676;23.372;2023-04-06T21:17:46;10.47;;;8.80;;
8074;SDS011;4080;42.676;23.372;2023-04-06T21:20:14;11.43;;;8.57;;
8074;SDS011;4080;42.676;23.372;2023-04-06T21:22:41;10.33;;;8.23;;
8074;SDS011;4080;42.676;23.372;2023-04-06T21:25:08;13.03;;;9.40;;
8074;SDS011;4080;42.676;23.372;2023-04-06T21:27:35;10.20;;;9.17;;
8074;SDS011;4080;42.676;23.372;2023-04-06T21:30:01;12.90;;;9.20;;
8074;SDS011;4080;42.676;23.372;2023-04-06T21:32:28;14.63;;;9.27;;
8074;SDS011;4080;42.676;23.372;2023-04-06T21:34:55;13.30;;;9.90;;
8074;SDS011;4080;42.676;23.372;2023-04-06T21:37:23;11.17;;;8.43;;
8074;SDS011;4080;42.676;23.372;2023-04-06T21:39:51;12.03;;;9.40;;
8074;SDS011;4080;42.676;23.372;2023-04-06T21:42:20;13.77;;;9.23;;
8074;SDS011;4080;42.676;23.372;2023-04-06T21:44:46;12.23;;;9.87;;
8074;SDS011;4080;42.676;23.372;2023-04-06T21:47:13;11.27;;;8.63;;
8074;SDS011;4080;42.676;23.372;2023-04-06T21:49:40;10.47;;;8.13;;
8074;SDS011;4080;42.676;23.372;2023-04-06T21:52:07;12.93;;;9.27;;
8074;SDS011;4080;42.676;23.372;2023-04-06T21:54:35;10.50;;;8.70;;
8074;SDS011;4080;42.676;23.372;2023-04-06T21:57:02;10.80;;;9.00;;
8074;SDS011;4080;42.676;23.372;2023-04-06T21:59:29;11.93;;;8.80;;
8074;SDS011;4080;42.676;23.372;2023-04-06T22:01:56;11.80;;;8.33;;
8074;SDS011;4080;42.676;23.372;2023-04-06T22:04:22;11.47;;;8.80;;
8074;SDS011;4080;42.676;23.372;2023-04-06T22:06:49;10.27;;;9.03;;
8074;SDS011;4080;42.676;23.372;2023-04-06T22:09:16;10.17;;;8.20;;
8074;SDS011;4080;42.676;23.372;2023-04-06T22:11:44;14.03;;;8.57;;
8074;SDS011;4080;42.676;23.372;2023-04-06T22:14:11;10.53;;;8.23;;
8074;SDS011;4080;42.676;23.372;2023-04-06T22:16:38;12.77;;;8.90;;
8074;SDS011;4080;42.676;23.372;2023-04-06T22:19:05;12.17;;;8.50;;
8074;SDS011;4080;42.676;23.372;2023-04-06T22:21:32;10.57;;;8.50;;
8074;SDS011;4080;42.676;23.372;2023-04-06T22:23:58;13.23;;;7.80;;
8074;SDS011;4080;42.676;23.372;2023-04-06T22:26:25;10.03;;;8.03;;
8074;SDS011;4080;42.676;23.372;2023-04-06T22:28:53;10.70;;;8.17;;
8074;SDS011;4080;42.676;23.372;2023-04-06T22:31:20;9.67;;;8.30;;
8074;SDS011;4080;42.676;23.372;2023-04-06T22:33:47;10.13;;;8.83;;
8074;SDS011;4080;42.676;23.372;2023-04-06T22:36:13;13.03;;;9.23;;
8074;SDS011;4080;42.676;23.372;2023-04-06T22:38:40;11.53;;;8.67;;
8074;SDS011;4080;42.676;23.372;2023-04-06T22:41:08;12.00;;;8.57;;
8074;SDS011;4080;42.676;23.372;2023-04-06T22:43:35;9.60;;;8.33;;
8074;SDS011;4080;42.676;23.372;2023-04-06T22:46:03;10.20;;;8.63;;
8074;SDS011;4080;42.676;23.372;2023-04-06T22:48:30;11.83;;;8.80;;
8074;SDS011;4080;42.676;23.372;2023-04-06T22:50:56;12.07;;;8.67;;
8074;SDS011;4080;42.676;23.372;2023-04-06T22:53:23;13.13;;;8.73;;
8074;SDS011;4080;42.676;23.372;2023-04-06T22:55:50;11.03;;;9.00;;
8074;SDS011;4080;42.676;23.372;2023-04-06T22:58:16;12.10;;;8.43;;
8074;SDS011;4080;42.676;23.372;2023-04-06T23:00:43;13.97;;;8.87;;
8074;SDS011;4080;42.676;23.372;2023-04-06T23:03:11;11.50;;;9.13;;
8074;SDS011;4080;42.676;23.372;2023-04-06T23:05:38;11.97;;;9.20;;
8074;SDS011;4080;42.676;23.372;2023-04-06T23:08:04;10.83;;;8.70;;
8074;SDS011;4080;42.676;23.372;2023-04-06T23:10:31;11.50;;;9.00;;
8074;SDS011;4080;42.676;23.372;2023-04-06T23:12:58;10.03;;;8.73;;
8074;SDS011;4080;42.676;23.372;2023-04-06T23:15:24;12.03;;;8.80;;
8074;SDS011;4080;42.676;23.372;2023-04-06T23:17:51;13.87;;;9.37;;
8074;SDS011;4080;42.676;23.372;2023-04-06T23:20:19;12.13;;;9.30;;
8074;SDS011;4080;42.676;23.372;2023-04-06T23:22:46;14.03;;;9.33;;
8074;SDS011;4080;42.676;23.372;2023-04-06T23:25:13;12.53;;;9.43;;
8074;SDS011;4080;42.676;23.372;2023-04-06T23:27:40;11.63;;;8.47;;
8074;SDS011;4080;42.676;23.372;2023-04-06T23:30:07;11.13;;;8.63;;
8074;SDS011;4080;42.676;23.372;2023-04-06T23:32:35;12.57;;;8.40;;
8074;SDS011;4080;42.676;23.372;2023-04-06T23:35:01;11.70;;;8.70;;
8074;SDS011;4080;42.676;23.372;2023-04-06T23:37:30;11.33;;;9.00;;
8074;SDS011;4080;42.676;23.372;2023-04-06T23:39:56;11.17;;;8.70;;
8074;SDS011;4080;42.676;23.372;2023-04-06T23:42:24;13.17;;;8.60;;
8074;SDS011;4080;42.676;23.372;2023-04-06T23:44:50;12.90;;;8.93;;
8074;SDS011;4080;42.676;23.372;2023-04-06T23:47:17;11.97;;;9.10;;
8074;SDS011;4080;42.676;23.372;2023-04-06T23:49:44;11.13;;;8.90;;
8074;SDS011;4080;42.676;23.372;2023-04-06T23:52:10;12.93;;;9.03;;
8074;SDS011;4080;42.676;23.372;2023-04-06T23:54:38;15.03;;;8.87;;
8074;SDS011;4080;42.676;23.372;2023-04-06T23:57:05;12.20;;;9.63;;
8074;SDS011;4080;42.676;23.372;2023-04-06T23:59:32;13.63;;;9.90;;
